sensor_id;sensor_type;location;lat;lon;timestamp;P1;durP1;ratioP1;P2;durP2;ratioP2
64875;SDS011;51369;49.862;9.908;2023-04-15T00:01:49;7.00;;;5.70;;
64875;SDS011;51369;49.862;9.908;2023-04-15T00:04:14;8.23;;;5.43;;
64875;SDS011;51369;49.862;9.908;2023-04-15T00:06:39;8.45;;;4.70;;
64875;SDS011;51369;49.862;9.908;2023-04-15T00:09:05;7.13;;;5.00;;
64875;SDS011;51369;49.862;9.908;2023-04-15T00:11:31;8.35;;;5.80;;
64875;SDS011;51369;49.862;9.908;2023-04-15T00:13:56;9.70;;;5.45;;
64875;SDS011;51369;49.862;9.908;2023-04-15T00:16:22;6.03;;;4.70;;
64875;SDS011;51369;49.862;9.908;2023-04-15T00:18:48;6.95;;;5.38;;
64875;SDS011;51369;49.862;9.908;2023-04-15T00:21:13;5.70;;;4.88;;
64875;SDS011;51369;49.862;9.908;2023-04-15T00:23:39;9.40;;;5.55;;
64875;SDS011;51369;49.862;9.908;2023-04-15T00:26:04;9.32;;;5.57;;
64875;SDS011;51369;49.862;9.908;2023-04-15T00:28:29;8.57;;;5.15;;
64875;SDS011;51369;49.862;9.908;2023-04-15T00:30:55;8.43;;;5.18;;
64875;SDS011;51369;49.862;9.908;2023-04-15T00:33:21;9.85;;;5.80;;
64875;SDS011;51369;49.862;9.908;2023-04-15T00:35:47;6.53;;;5.25;;
64875;SDS011;51369;49.862;9.908;2023-04-15T00:38:12;10.18;;;5.50;;
64875;SDS011;51369;49.862;9.908;2023-04-15T00:40:37;5.57;;;4.35;;
64875;SDS011;51369;49.862;9.908;2023-04-15T00:43:03;7.28;;;4.82;;
64875;SDS011;51369;49.862;9.908;2023-04-15T00:45:29;7.50;;;4.70;;
64875;SDS011;51369;49.862;9.908;2023-04-15T00:47:55;10.80;;;5.50;;
64875;SDS011;51369;49.862;9.908;2023-04-15T00:50:20;8.63;;;5.20;;
64875;SDS011;51369;49.862;9.908;2023-04-15T00:52:46;9.13;;;5.30;;
64875;SDS011;51369;49.862;9.908;2023-04-15T00:55:14;6.68;;;4.82;;
64875;SDS011;51369;49.862;9.908;2023-04-15T00:57:39;5.50;;;4.57;;
64875;SDS011;51369;49.862;9.908;2023-04-15T01:00:05;6.53;;;5.07;;
64875;SDS011;51369;49.862;9.908;2023-04-15T01:02:36;6.40;;;4.47;;
64875;SDS011;51369;49.862;9.908;2023-04-15T01:05:02;6.07;;;4.65;;
64875;SDS011;51369;49.862;9.908;2023-04-15T01:07:28;8.57;;;5.55;;
64875;SDS011;51369;49.862;9.908;2023-04-15T01:09:54;12.38;;;5.05;;
64875;SDS011;51369;49.862;9.908;2023-04-15T01:12:20;5.78;;;3.70;;
64875;SDS011;51369;49.862;9.908;2023-04-15T01:14:47;5.38;;;4.30;;
64875;SDS011;51369;49.862;9.908;2023-04-15T01:17:13;10.63;;;4.90;;
64875;SDS011;51369;49.862;9.908;2023-04-15T01:19:38;6.13;;;4.68;;
64875;SDS011;51369;49.862;9.908;2023-04-15T01:22:04;6.20;;;4.80;;
64875;SDS011;51369;49.862;9.908;2023-04-15T01:24:33;8.15;;;4.68;;
64875;SDS011;51369;49.862;9.908;2023-04-15T01:27:00;5.57;;;4.32;;
64875;SDS011;51369;49.862;9.908;2023-04-15T01:29:26;6.07;;;4.60;;
64875;SDS011;51369;49.862;9.908;2023-04-15T01:31:52;3.65;;;2.90;;
64875;SDS011;51369;49.862;9.908;2023-04-15T01:34:20;3.10;;;2.70;;
64875;SDS011;51369;49.862;9.908;2023-04-15T01:36:46;5.38;;;4.80;;
64875;SDS011;51369;49.862;9.908;2023-04-15T01:39:12;8.02;;;5.07;;
64875;SDS011;51369;49.862;9.908;2023-04-15T01:41:38;8.45;;;4.72;;
64875;SDS011;51369;49.862;9.908;2023-04-15T01:44:06;8.07;;;4.93;;
64875;SDS011;51369;49.862;9.908;2023-04-15T01:46:32;5.85;;;2.85;;
64875;SDS011;51369;49.862;9.908;2023-04-15T01:48:58;5.13;;;2.47;;
64875;SDS011;51369;49.862;9.908;2023-04-15T01:51:24;4.20;;;2.60;;
64875;SDS011;51369;49.862;9.908;2023-04-15T01:53:49;5.20;;;2.58;;
64875;SDS011;51369;49.862;9.908;2023-04-15T01:56:16;2.90;;;2.55;;
64875;SDS011;51369;49.862;9.908;2023-04-15T01:58:42;12.85;;;3.83;;
64875;SDS011;51369;49.862;9.908;2023-04-15T02:01:09;6.70;;;4.95;;
64875;SDS011;51369;49.862;9.908;2023-04-15T02:03:35;7.55;;;5.45;;
64875;SDS011;51369;49.862;9.908;2023-04-15T02:06:01;11.05;;;4.97;;
64875;SDS011;51369;49.862;9.908;2023-04-15T02:08:27;3.80;;;3.35;;
64875;SDS011;51369;49.862;9.908;2023-04-15T02:10:52;7.18;;;2.40;;
64875;SDS011;51369;49.862;9.908;2023-04-15T02:13:18;8.52;;;2.80;;
64875;SDS011;51369;49.862;9.908;2023-04-15T02:15:47;3.83;;;2.85;;
64875;SDS011;51369;49.862;9.908;2023-04-15T02:18:12;4.88;;;3.10;;
64875;SDS011;51369;49.862;9.908;2023-04-15T02:20:39;7.45;;;4.80;;
64875;SDS011;51369;49.862;9.908;2023-04-15T02:23:04;6.60;;;4.60;;
64875;SDS011;51369;49.862;9.908;2023-04-15T02:25:31;8.35;;;4.57;;
64875;SDS011;51369;49.862;9.908;2023-04-15T02:27:56;10.25;;;5.47;;
64875;SDS011;51369;49.862;9.908;2023-04-15T02:30:22;12.00;;;5.70;;
64875;SDS011;51369;49.862;9.908;2023-04-15T02:32:48;8.70;;;5.25;;
64875;SDS011;51369;49.862;9.908;2023-04-15T02:35:13;9.68;;;4.68;;
64875;SDS011;51369;49.862;9.908;2023-04-15T02:37:38;7.63;;;5.63;;
64875;SDS011;51369;49.862;9.908;2023-04-15T02:40:11;7.50;;;5.07;;
64875;SDS011;51369;49.862;9.908;2023-04-15T02:42:40;8.82;;;4.30;;
64875;SDS011;51369;49.862;9.908;2023-04-15T02:45:10;7.45;;;4.10;;
64875;SDS011;51369;49.862;9.908;2023-04-15T02:47:37;8.63;;;5.18;;
64875;SDS011;51369;49.862;9.908;2023-04-15T02:50:10;10.15;;;5.63;;
64875;SDS011;51369;49.862;9.908;2023-04-15T02:52:40;8.45;;;5.28;;
64875;SDS011;51369;49.862;9.908;2023-04-15T02:55:08;11.98;;;4.85;;
64875;SDS011;51369;49.862;9.908;2023-04-15T02:57:35;7.20;;;4.78;;
64875;SDS011;51369;49.862;9.908;2023-04-15T03:00:06;7.82;;;5.63;;
64875;SDS011;51369;49.862;9.908;2023-04-15T03:02:35;6.50;;;5.20;;
64875;SDS011;51369;49.862;9.908;2023-04-15T03:05:02;7.20;;;5.57;;
64875;SDS011;51369;49.862;9.908;2023-04-15T03:07:30;12.80;;;5.32;;
64875;SDS011;51369;49.862;9.908;2023-04-15T03:09:55;10.02;;;5.63;;
64875;SDS011;51369;49.862;9.908;2023-04-15T03:12:21;7.80;;;5.50;;
64875;SDS011;51369;49.862;9.908;2023-04-15T03:14:48;10.73;;;4.80;;
64875;SDS011;51369;49.862;9.908;2023-04-15T03:17:14;9.48;;;5.47;;
64875;SDS011;51369;49.862;9.908;2023-04-15T03:19:41;7.03;;;5.18;;
64875;SDS011;51369;49.862;9.908;2023-04-15T03:22:07;8.18;;;5.47;;
64875;SDS011;51369;49.862;9.908;2023-04-15T03:24:32;9.82;;;5.90;;
64875;SDS011;51369;49.862;9.908;2023-04-15T03:26:58;9.10;;;5.53;;
64875;SDS011;51369;49.862;9.908;2023-04-15T03:29:24;9.82;;;5.90;;
64875;SDS011;51369;49.862;9.908;2023-04-15T03:31:51;7.28;;;5.28;;
64875;SDS011;51369;49.862;9.908;2023-04-15T03:34:16;10.80;;;6.25;;
64875;SDS011;51369;49.862;9.908;2023-04-15T03:36:41;10.95;;;6.05;;
64875;SDS011;51369;49.862;9.908;2023-04-15T03:39:07;6.43;;;5.10;;
64875;SDS011;51369;49.862;9.908;2023-04-15T03:41:32;7.88;;;5.13;;
64875;SDS011;51369;49.862;9.908;2023-04-15T03:43:58;13.63;;;5.72;;
64875;SDS011;51369;49.862;9.908;2023-04-15T03:46:23;11.50;;;7.50;;
64875;SDS011;51369;49.862;9.908;2023-04-15T03:48:48;10.18;;;6.10;;
64875;SDS011;51369;49.862;9.908;2023-04-15T03:51:14;9.63;;;5.47;;
64875;SDS011;51369;49.862;9.908;2023-04-15T03:53:40;6.90;;;5.43;;
64875;SDS011;51369;49.862;9.908;2023-04-15T03:56:05;9.95;;;5.30;;
64875;SDS011;51369;49.862;9.908;2023-04-15T03:58:31;10.43;;;5.75;;
64875;SDS011;51369;49.862;9.908;2023-04-15T04:00:56;11.38;;;5.38;;
64875;SDS011;51369;49.862;9.908;2023-04-15T04:03:21;7.20;;;5.05;;
64875;SDS011;51369;49.862;9.908;2023-04-15T04:05:47;7.90;;;5.03;;
64875;SDS011;51369;49.862;9.908;2023-04-15T04:08:12;8.80;;;4.63;;
64875;SDS011;51369;49.862;9.908;2023-04-15T04:10:38;7.20;;;5.00;;
64875;SDS011;51369;49.862;9.908;2023-04-15T04:13:04;9.63;;;5.38;;
64875;SDS011;51369;49.862;9.908;2023-04-15T04:15:29;9.18;;;5.47;;
64875;SDS011;51369;49.862;9.908;2023-04-15T04:17:55;6.18;;;5.15;;
64875;SDS011;51369;49.862;9.908;2023-04-15T04:20:20;10.70;;;5.53;;
64875;SDS011;51369;49.862;9.908;2023-04-15T04:22:45;8.57;;;5.25;;
64875;SDS011;51369;49.862;9.908;2023-04-15T04:25:11;7.80;;;5.13;;
64875;SDS011;51369;49.862;9.908;2023-04-15T04:27:36;8.90;;;5.22;;
64875;SDS011;51369;49.862;9.908;2023-04-15T04:30:02;10.43;;;5.82;;
64875;SDS011;51369;49.862;9.908;2023-04-15T04:32:28;8.95;;;5.50;;
64875;SDS011;51369;49.862;9.908;2023-04-15T04:34:54;5.85;;;5.13;;
64875;SDS011;51369;49.862;9.908;2023-04-15T04:37:19;8.43;;;5.00;;
64875;SDS011;51369;49.862;9.908;2023-04-15T04:39:45;7.97;;;4.90;;
64875;SDS011;51369;49.862;9.908;2023-04-15T04:42:10;7.25;;;5.30;;
64875;SDS011;51369;49.862;9.908;2023-04-15T04:44:35;8.02;;;5.00;;
64875;SDS011;51369;49.862;9.908;2023-04-15T04:47:01;6.50;;;4.80;;
64875;SDS011;51369;49.862;9.908;2023-04-15T04:49:26;7.40;;;5.10;;
64875;SDS011;51369;49.862;9.908;2023-04-15T04:51:52;8.85;;;5.47;;
64875;SDS011;51369;49.862;9.908;2023-04-15T04:54:17;6.20;;;4.93;;
64875;SDS011;51369;49.862;9.908;2023-04-15T04:56:42;9.18;;;5.72;;
64875;SDS011;51369;49.862;9.908;2023-04-15T04:59:08;12.05;;;5.72;;
64875;SDS011;51369;49.862;9.908;2023-04-15T05:01:33;8.30;;;5.07;;
64875;SDS011;51369;49.862;9.908;2023-04-15T05:03:59;9.18;;;5.18;;
64875;SDS011;51369;49.862;9.908;2023-04-15T05:06:25;12.25;;;5.75;;
64875;SDS011;51369;49.862;9.908;2023-04-15T05:08:50;10.25;;;5.05;;
64875;SDS011;51369;49.862;9.908;2023-04-15T05:11:16;7.57;;;5.03;;
64875;SDS011;51369;49.862;9.908;2023-04-15T05:13:41;9.32;;;5.53;;
64875;SDS011;51369;49.862;9.908;2023-04-15T05:16:07;7.18;;;5.03;;
64875;SDS011;51369;49.862;9.908;2023-04-15T05:18:32;10.48;;;5.18;;
64875;SDS011;51369;49.862;9.908;2023-04-15T05:20:58;10.48;;;5.35;;
64875;SDS011;51369;49.862;9.908;2023-04-15T05:23:23;8.13;;;5.45;;
64875;SDS011;51369;49.862;9.908;2023-04-15T05:25:49;6.97;;;5.32;;
64875;SDS011;51369;49.862;9.908;2023-04-15T05:28:15;8.23;;;5.20;;
64875;SDS011;51369;49.862;9.908;2023-04-15T05:30:40;9.18;;;5.22;;
64875;SDS011;51369;49.862;9.908;2023-04-15T05:33:06;8.55;;;5.25;;
64875;SDS011;51369;49.862;9.908;2023-04-15T05:35:31;9.43;;;5.47;;
64875;SDS011;51369;49.862;9.908;2023-04-15T05:37:57;7.82;;;5.80;;
64875;SDS011;51369;49.862;9.908;2023-04-15T05:40:22;9.48;;;5.93;;
64875;SDS011;51369;49.862;9.908;2023-04-15T05:42:48;11.23;;;6.57;;
64875;SDS011;51369;49.862;9.908;2023-04-15T05:45:13;19.33;;;10.13;;
64875;SDS011;51369;49.862;9.908;2023-04-15T05:47:39;13.25;;;6.47;;
64875;SDS011;51369;49.862;9.908;2023-04-15T05:50:04;9.95;;;5.05;;
64875;SDS011;51369;49.862;9.908;2023-04-15T05:52:31;7.97;;;5.40;;
64875;SDS011;51369;49.862;9.908;2023-04-15T05:54:56;8.15;;;5.32;;
64875;SDS011;51369;49.862;9.908;2023-04-15T05:57:22;9.63;;;5.40;;
64875;SDS011;51369;49.862;9.908;2023-04-15T05:59:47;9.35;;;5.40;;
64875;SDS011;51369;49.862;9.908;2023-04-15T06:02:13;11.10;;;5.20;;
64875;SDS011;51369;49.862;9.908;2023-04-15T06:04:38;9.00;;;4.82;;
64875;SDS011;51369;49.862;9.908;2023-04-15T06:07:04;9.07;;;5.07;;
64875;SDS011;51369;49.862;9.908;2023-04-15T06:09:30;7.82;;;5.13;;
64875;SDS011;51369;49.862;9.908;2023-04-15T06:11:55;10.15;;;5.43;;
64875;SDS011;51369;49.862;9.908;2023-04-15T06:14:23;10.52;;;5.05;;
64875;SDS011;51369;49.862;9.908;2023-04-15T06:16:49;8.40;;;5.55;;
64875;SDS011;51369;49.862;9.908;2023-04-15T06:19:14;15.32;;;6.63;;
64875;SDS011;51369;49.862;9.908;2023-04-15T06:21:40;10.30;;;5.88;;
64875;SDS011;51369;49.862;9.908;2023-04-15T06:24:05;10.93;;;5.50;;
64875;SDS011;51369;49.862;9.908;2023-04-15T06:26:31;10.73;;;5.55;;
64875;SDS011;51369;49.862;9.908;2023-04-15T06:28:56;8.32;;;5.47;;
64875;SDS011;51369;49.862;9.908;2023-04-15T06:31:22;7.50;;;4.85;;
64875;SDS011;51369;49.862;9.908;2023-04-15T06:33:47;9.75;;;5.72;;
64875;SDS011;51369;49.862;9.908;2023-04-15T06:36:13;9.10;;;5.72;;
64875;SDS011;51369;49.862;9.908;2023-04-15T06:38:38;8.50;;;5.32;;
64875;SDS011;51369;49.862;9.908;2023-04-15T06:41:03;5.95;;;4.97;;
64875;SDS011;51369;49.862;9.908;2023-04-15T06:43:29;8.15;;;5.22;;
64875;SDS011;51369;49.862;9.908;2023-04-15T06:45:55;7.65;;;4.72;;
64875;SDS011;51369;49.862;9.908;2023-04-15T06:48:21;6.80;;;4.35;;
64875;SDS011;51369;49.862;9.908;2023-04-15T06:50:46;7.63;;;4.88;;
64875;SDS011;51369;49.862;9.908;2023-04-15T06:53:13;8.40;;;5.35;;
64875;SDS011;51369;49.862;9.908;2023-04-15T06:55:38;6.72;;;4.75;;
64875;SDS011;51369;49.862;9.908;2023-04-15T06:58:04;7.80;;;4.80;;
64875;SDS011;51369;49.862;9.908;2023-04-15T07:00:29;9.32;;;5.22;;
64875;SDS011;51369;49.862;9.908;2023-04-15T07:02:55;12.05;;;5.93;;
64875;SDS011;51369;49.862;9.908;2023-04-15T07:05:21;8.68;;;5.55;;
64875;SDS011;51369;49.862;9.908;2023-04-15T07:07:46;10.32;;;5.47;;
64875;SDS011;51369;49.862;9.908;2023-04-15T07:10:11;11.88;;;5.90;;
64875;SDS011;51369;49.862;9.908;2023-04-15T07:12:39;9.55;;;5.78;;
64875;SDS011;51369;49.862;9.908;2023-04-15T07:15:04;10.02;;;6.13;;
64875;SDS011;51369;49.862;9.908;2023-04-15T07:17:31;9.77;;;5.85;;
64875;SDS011;51369;49.862;9.908;2023-04-15T07:19:56;9.43;;;6.13;;
64875;SDS011;51369;49.862;9.908;2023-04-15T07:22:22;8.48;;;5.97;;
64875;SDS011;51369;49.862;9.908;2023-04-15T07:24:48;8.48;;;6.05;;
64875;SDS011;51369;49.862;9.908;2023-04-15T07:27:13;7.57;;;6.32;;
64875;SDS011;51369;49.862;9.908;2023-04-15T07:29:39;8.82;;;6.35;;
64875;SDS011;51369;49.862;9.908;2023-04-15T07:32:04;10.27;;;6.78;;
64875;SDS011;51369;49.862;9.908;2023-04-15T07:34:30;9.65;;;6.32;;
64875;SDS011;51369;49.862;9.908;2023-04-15T07:36:55;9.45;;;6.28;;
64875;SDS011;51369;49.862;9.908;2023-04-15T07:39:21;8.98;;;6.80;;
64875;SDS011;51369;49.862;9.908;2023-04-15T07:41:47;8.50;;;5.72;;
64875;SDS011;51369;49.862;9.908;2023-04-15T07:44:13;9.73;;;6.30;;
64875;SDS011;51369;49.862;9.908;2023-04-15T07:46:38;8.45;;;6.40;;
64875;SDS011;51369;49.862;9.908;2023-04-15T07:49:04;11.32;;;6.55;;
64875;SDS011;51369;49.862;9.908;2023-04-15T07:51:29;8.88;;;6.43;;
64875;SDS011;51369;49.862;9.908;2023-04-15T07:53:56;8.55;;;6.68;;
64875;SDS011;51369;49.862;9.908;2023-04-15T07:56:22;9.48;;;6.57;;
64875;SDS011;51369;49.862;9.908;2023-04-15T07:58:47;9.95;;;7.00;;
64875;SDS011;51369;49.862;9.908;2023-04-15T08:01:12;9.13;;;6.63;;
64875;SDS011;51369;49.862;9.908;2023-04-15T08:03:38;11.20;;;6.38;;
64875;SDS011;51369;49.862;9.908;2023-04-15T08:06:03;14.27;;;6.50;;
64875;SDS011;51369;49.862;9.908;2023-04-15T08:08:29;8.20;;;6.50;;
64875;SDS011;51369;49.862;9.908;2023-04-15T08:10:54;10.48;;;6.38;;
64875;SDS011;51369;49.862;9.908;2023-04-15T08:13:19;9.77;;;5.75;;
64875;SDS011;51369;49.862;9.908;2023-04-15T08:15:45;8.85;;;6.40;;
64875;SDS011;51369;49.862;9.908;2023-04-15T08:18:17;11.30;;;6.22;;
64875;SDS011;51369;49.862;9.908;2023-04-15T08:20:43;8.85;;;6.47;;
64875;SDS011;51369;49.862;9.908;2023-04-15T08:23:08;7.93;;;5.53;;
64875;SDS011;51369;49.862;9.908;2023-04-15T08:25:34;9.82;;;6.30;;
64875;SDS011;51369;49.862;9.908;2023-04-15T08:28:02;7.43;;;5.43;;
64875;SDS011;51369;49.862;9.908;2023-04-15T08:30:29;7.85;;;6.28;;
64875;SDS011;51369;49.862;9.908;2023-04-15T08:32:55;9.90;;;6.60;;
64875;SDS011;51369;49.862;9.908;2023-04-15T08:35:20;7.60;;;5.60;;
64875;SDS011;51369;49.862;9.908;2023-04-15T08:37:46;7.85;;;5.78;;
64875;SDS011;51369;49.862;9.908;2023-04-15T08:40:11;10.98;;;6.43;;
64875;SDS011;51369;49.862;9.908;2023-04-15T08:42:41;10.27;;;6.25;;
64875;SDS011;51369;49.862;9.908;2023-04-15T08:45:11;9.90;;;5.97;;
64875;SDS011;51369;49.862;9.908;2023-04-15T08:47:37;8.93;;;5.80;;
64875;SDS011;51369;49.862;9.908;2023-04-15T08:50:07;7.75;;;5.55;;
64875;SDS011;51369;49.862;9.908;2023-04-15T08:52:34;7.60;;;5.30;;
64875;SDS011;51369;49.862;9.908;2023-04-15T08:54:59;9.00;;;5.75;;
64875;SDS011;51369;49.862;9.908;2023-04-15T08:57:29;7.03;;;5.85;;
64875;SDS011;51369;49.862;9.908;2023-04-15T08:59:55;7.80;;;5.72;;
64875;SDS011;51369;49.862;9.908;2023-04-15T09:02:21;6.57;;;5.15;;
64875;SDS011;51369;49.862;9.908;2023-04-15T09:04:48;6.20;;;4.63;;
64875;SDS011;51369;49.862;9.908;2023-04-15T09:07:14;6.75;;;5.00;;
64875;SDS011;51369;49.862;9.908;2023-04-15T09:09:39;6.45;;;4.78;;
64875;SDS011;51369;49.862;9.908;2023-04-15T09:12:07;8.77;;;5.00;;
64875;SDS011;51369;49.862;9.908;2023-04-15T09:14:33;6.38;;;4.50;;
64875;SDS011;51369;49.862;9.908;2023-04-15T09:16:59;5.28;;;3.92;;
64875;SDS011;51369;49.862;9.908;2023-04-15T09:19:26;5.35;;;4.20;;
64875;SDS011;51369;49.862;9.908;2023-04-15T09:21:53;4.97;;;4.00;;
64875;SDS011;51369;49.862;9.908;2023-04-15T09:24:20;5.82;;;4.07;;
64875;SDS011;51369;49.862;9.908;2023-04-15T09:26:46;5.70;;;4.05;;
64875;SDS011;51369;49.862;9.908;2023-04-15T09:29:12;5.10;;;4.13;;
64875;SDS011;51369;49.862;9.908;2023-04-15T09:31:38;6.68;;;4.03;;
64875;SDS011;51369;49.862;9.908;2023-04-15T09:34:04;4.45;;;3.28;;
64875;SDS011;51369;49.862;9.908;2023-04-15T09:39:12;6.30;;;4.10;;
64875;SDS011;51369;49.862;9.908;2023-04-15T09:41:38;5.15;;;3.90;;
64875;SDS011;51369;49.862;9.908;2023-04-15T09:44:03;6.30;;;3.92;;
64875;SDS011;51369;49.862;9.908;2023-04-15T09:46:41;6.97;;;3.83;;
64875;SDS011;51369;49.862;9.908;2023-04-15T09:49:08;5.95;;;4.13;;
64875;SDS011;51369;49.862;9.908;2023-04-15T09:51:34;7.22;;;4.25;;
64875;SDS011;51369;49.862;9.908;2023-04-15T09:54:00;4.05;;;2.97;;
64875;SDS011;51369;49.862;9.908;2023-04-15T09:56:31;4.65;;;3.15;;
64875;SDS011;51369;49.862;9.908;2023-04-15T09:59:00;5.13;;;3.08;;
64875;SDS011;51369;49.862;9.908;2023-04-15T10:01:25;5.22;;;2.58;;
64875;SDS011;51369;49.862;9.908;2023-04-15T10:03:51;4.03;;;2.88;;
64875;SDS011;51369;49.862;9.908;2023-04-15T10:06:20;3.42;;;2.55;;
64875;SDS011;51369;49.862;9.908;2023-04-15T10:08:47;3.55;;;2.63;;
64875;SDS011;51369;49.862;9.908;2023-04-15T10:11:13;6.25;;;3.20;;
64875;SDS011;51369;49.862;9.908;2023-04-15T10:13:38;3.08;;;2.40;;
64875;SDS011;51369;49.862;9.908;2023-04-15T10:16:11;3.58;;;2.28;;
64875;SDS011;51369;49.862;9.908;2023-04-15T10:18:42;2.25;;;2.03;;
64875;SDS011;51369;49.862;9.908;2023-04-15T10:21:09;6.05;;;2.45;;
64875;SDS011;51369;49.862;9.908;2023-04-15T10:23:35;2.58;;;2.00;;
64875;SDS011;51369;49.862;9.908;2023-04-15T10:26:01;3.85;;;2.25;;
64875;SDS011;51369;49.862;9.908;2023-04-15T10:28:26;5.22;;;2.17;;
64875;SDS011;51369;49.862;9.908;2023-04-15T10:30:52;3.88;;;1.75;;
64875;SDS011;51369;49.862;9.908;2023-04-15T10:33:19;2.33;;;1.95;;
64875;SDS011;51369;49.862;9.908;2023-04-15T10:35:47;3.65;;;2.13;;
64875;SDS011;51369;49.862;9.908;2023-04-15T10:38:34;2.13;;;1.45;;
64875;SDS011;51369;49.862;9.908;2023-04-15T10:46:34;1.75;;;1.23;;
64875;SDS011;51369;49.862;9.908;2023-04-15T10:51:50;3.03;;;1.60;;
64875;SDS011;51369;49.862;9.908;2023-04-15T10:59:36;2.40;;;1.40;;
64875;SDS011;51369;49.862;9.908;2023-04-15T11:05:06;2.88;;;2.33;;
64875;SDS011;51369;49.862;9.908;2023-04-15T11:12:58;2.75;;;2.38;;
64875;SDS011;51369;49.862;9.908;2023-04-15T11:15:43;3.08;;;2.17;;
64875;SDS011;51369;49.862;9.908;2023-04-15T11:18:13;3.03;;;2.30;;
64875;SDS011;51369;49.862;9.908;2023-04-15T11:20:50;2.63;;;2.40;;
64875;SDS011;51369;49.862;9.908;2023-04-15T11:23:28;4.75;;;2.80;;
64875;SDS011;51369;49.862;9.908;2023-04-15T11:25:59;3.10;;;2.60;;
64875;SDS011;51369;49.862;9.908;2023-04-15T11:28:27;2.60;;;2.40;;
64875;SDS011;51369;49.862;9.908;2023-04-15T11:30:54;3.28;;;2.83;;
64875;SDS011;51369;49.862;9.908;2023-04-15T11:33:21;3.08;;;2.35;;
64875;SDS011;51369;49.862;9.908;2023-04-15T11:35:48;3.30;;;2.67;;
64875;SDS011;51369;49.862;9.908;2023-04-15T11:38:13;3.47;;;2.30;;
64875;SDS011;51369;49.862;9.908;2023-04-15T11:40:40;4.10;;;3.63;;
64875;SDS011;51369;49.862;9.908;2023-04-15T11:43:10;3.15;;;2.85;;
64875;SDS011;51369;49.862;9.908;2023-04-15T11:48:16;2.38;;;2.10;;
64875;SDS011;51369;49.862;9.908;2023-04-15T11:50:42;2.88;;;2.10;;
64875;SDS011;51369;49.862;9.908;2023-04-15T11:53:08;2.65;;;2.40;;
64875;SDS011;51369;49.862;9.908;2023-04-15T11:58:20;2.65;;;2.03;;
64875;SDS011;51369;49.862;9.908;2023-04-15T12:00:57;2.53;;;2.28;;
64875;SDS011;51369;49.862;9.908;2023-04-15T12:03:28;2.50;;;2.30;;
64875;SDS011;51369;49.862;9.908;2023-04-15T12:14:11;3.33;;;2.78;;
64875;SDS011;51369;49.862;9.908;2023-04-15T12:16:43;4.50;;;3.10;;
64875;SDS011;51369;49.862;9.908;2023-04-15T12:19:14;8.70;;;5.65;;
64875;SDS011;51369;49.862;9.908;2023-04-15T12:21:41;4.13;;;3.25;;
64875;SDS011;51369;49.862;9.908;2023-04-15T12:24:09;4.22;;;3.22;;
64875;SDS011;51369;49.862;9.908;2023-04-15T12:26:40;7.75;;;4.80;;
64875;SDS011;51369;49.862;9.908;2023-04-15T12:29:09;6.38;;;4.55;;
64875;SDS011;51369;49.862;9.908;2023-04-15T12:31:36;4.03;;;3.42;;
64875;SDS011;51369;49.862;9.908;2023-04-15T12:34:10;6.97;;;5.10;;
64875;SDS011;51369;49.862;9.908;2023-04-15T12:36:36;4.20;;;2.97;;
64875;SDS011;51369;49.862;9.908;2023-04-15T12:39:04;4.53;;;3.45;;
64875;SDS011;51369;49.862;9.908;2023-04-15T12:41:31;5.97;;;3.88;;
64875;SDS011;51369;49.862;9.908;2023-04-15T12:43:57;6.38;;;3.80;;
64875;SDS011;51369;49.862;9.908;2023-04-15T12:46:23;3.63;;;3.00;;
64875;SDS011;51369;49.862;9.908;2023-04-15T12:48:49;6.32;;;4.00;;
64875;SDS011;51369;49.862;9.908;2023-04-15T12:51:15;4.20;;;3.42;;
64875;SDS011;51369;49.862;9.908;2023-04-15T12:53:40;3.50;;;3.00;;
64875;SDS011;51369;49.862;9.908;2023-04-15T12:56:05;3.22;;;2.80;;
64875;SDS011;51369;49.862;9.908;2023-04-15T12:58:31;4.53;;;3.55;;
64875;SDS011;51369;49.862;9.908;2023-04-15T13:00:57;4.43;;;3.03;;
64875;SDS011;51369;49.862;9.908;2023-04-15T13:03:22;3.67;;;3.20;;
64875;SDS011;51369;49.862;9.908;2023-04-15T13:05:48;7.50;;;4.90;;
64875;SDS011;51369;49.862;9.908;2023-04-15T13:08:13;5.60;;;3.83;;
64875;SDS011;51369;49.862;9.908;2023-04-15T13:10:39;5.75;;;4.10;;
64875;SDS011;51369;49.862;9.908;2023-04-15T13:13:06;4.22;;;3.45;;
64875;SDS011;51369;49.862;9.908;2023-04-15T13:15:32;4.70;;;4.10;;
64875;SDS011;51369;49.862;9.908;2023-04-15T13:17:57;5.53;;;3.70;;
64875;SDS011;51369;49.862;9.908;2023-04-15T13:20:24;4.15;;;3.30;;
64875;SDS011;51369;49.862;9.908;2023-04-15T13:22:51;3.38;;;2.78;;
64875;SDS011;51369;49.862;9.908;2023-04-15T13:25:17;4.15;;;3.03;;
64875;SDS011;51369;49.862;9.908;2023-04-15T13:27:42;4.72;;;3.35;;
64875;SDS011;51369;49.862;9.908;2023-04-15T13:30:08;4.45;;;3.30;;
64875;SDS011;51369;49.862;9.908;2023-04-15T13:32:34;3.80;;;3.20;;
64875;SDS011;51369;49.862;9.908;2023-04-15T13:34:59;4.30;;;3.03;;
64875;SDS011;51369;49.862;9.908;2023-04-15T13:37:25;5.82;;;3.85;;
64875;SDS011;51369;49.862;9.908;2023-04-15T13:39:52;3.67;;;3.10;;
64875;SDS011;51369;49.862;9.908;2023-04-15T13:42:17;4.05;;;3.28;;
64875;SDS011;51369;49.862;9.908;2023-04-15T13:44:43;4.40;;;2.70;;
64875;SDS011;51369;49.862;9.908;2023-04-15T13:47:08;3.80;;;2.70;;
64875;SDS011;51369;49.862;9.908;2023-04-15T13:49:34;4.53;;;3.38;;
64875;SDS011;51369;49.862;9.908;2023-04-15T13:51:59;3.85;;;3.05;;
64875;SDS011;51369;49.862;9.908;2023-04-15T13:54:25;2.90;;;2.63;;
64875;SDS011;51369;49.862;9.908;2023-04-15T13:56:51;3.20;;;2.53;;
64875;SDS011;51369;49.862;9.908;2023-04-15T13:59:16;4.90;;;3.78;;
64875;SDS011;51369;49.862;9.908;2023-04-15T14:01:41;3.55;;;2.97;;
64875;SDS011;51369;49.862;9.908;2023-04-15T14:04:07;4.50;;;4.10;;
64875;SDS011;51369;49.862;9.908;2023-04-15T14:06:33;3.05;;;2.47;;
64875;SDS011;51369;49.862;9.908;2023-04-15T14:08:58;3.35;;;2.33;;
64875;SDS011;51369;49.862;9.908;2023-04-15T14:11:24;2.60;;;2.25;;
64875;SDS011;51369;49.862;9.908;2023-04-15T14:13:49;3.50;;;2.10;;
64875;SDS011;51369;49.862;9.908;2023-04-15T14:16:14;2.80;;;2.42;;
64875;SDS011;51369;49.862;9.908;2023-04-15T14:18:40;2.60;;;2.38;;
64875;SDS011;51369;49.862;9.908;2023-04-15T14:21:08;3.95;;;2.67;;
64875;SDS011;51369;49.862;9.908;2023-04-15T14:23:33;2.67;;;2.33;;
64875;SDS011;51369;49.862;9.908;2023-04-15T14:25:59;2.78;;;2.00;;
64875;SDS011;51369;49.862;9.908;2023-04-15T14:28:24;4.28;;;2.50;;
64875;SDS011;51369;49.862;9.908;2023-04-15T14:30:49;4.63;;;2.25;;
64875;SDS011;51369;49.862;9.908;2023-04-15T14:33:15;2.90;;;2.45;;
64875;SDS011;51369;49.862;9.908;2023-04-15T14:35:40;4.80;;;3.22;;
64875;SDS011;51369;49.862;9.908;2023-04-15T14:38:06;3.75;;;2.85;;
64875;SDS011;51369;49.862;9.908;2023-04-15T14:40:34;4.28;;;2.70;;
64875;SDS011;51369;49.862;9.908;2023-04-15T14:43:00;7.50;;;3.83;;
64875;SDS011;51369;49.862;9.908;2023-04-15T14:45:25;5.75;;;4.63;;
64875;SDS011;51369;49.862;9.908;2023-04-15T14:47:51;5.63;;;3.88;;
64875;SDS011;51369;49.862;9.908;2023-04-15T14:50:17;5.15;;;3.22;;
64875;SDS011;51369;49.862;9.908;2023-04-15T14:52:42;4.53;;;3.15;;
64875;SDS011;51369;49.862;9.908;2023-04-15T14:55:08;2.78;;;2.50;;
64875;SDS011;51369;49.862;9.908;2023-04-15T14:57:35;4.10;;;2.90;;
64875;SDS011;51369;49.862;9.908;2023-04-15T15:00:02;4.85;;;3.40;;
64875;SDS011;51369;49.862;9.908;2023-04-15T15:02:28;4.53;;;3.22;;
64875;SDS011;51369;49.862;9.908;2023-04-15T15:04:53;4.45;;;2.97;;
64875;SDS011;51369;49.862;9.908;2023-04-15T15:07:19;2.75;;;2.40;;
64875;SDS011;51369;49.862;9.908;2023-04-15T15:09:45;2.65;;;2.38;;
64875;SDS011;51369;49.862;9.908;2023-04-15T15:12:11;4.03;;;2.70;;
64875;SDS011;51369;49.862;9.908;2023-04-15T15:14:36;7.05;;;5.25;;
64875;SDS011;51369;49.862;9.908;2023-04-15T15:17:01;4.57;;;3.25;;
64875;SDS011;51369;49.862;9.908;2023-04-15T15:19:27;6.60;;;4.07;;